sensor_id;sensor_type;location;lat;lon;timestamp;pressure;altitude;pressure_sealevel;temperature;humidity
16481;BME280;44634;54.110;12.138;2023-05-29T00:02:15;101793.13;;;16.01;100.00
16481;BME280;44634;54.110;12.138;2023-05-29T00:04:44;101770.94;;;15.54;100.00
16481;BME280;44634;54.110;12.138;2023-05-29T00:07:12;101743.66;;;15.79;100.00
16481;BME280;44634;54.110;12.138;2023-05-29T00:09:39;101751.09;;;15.75;100.00
16481;BME280;44634;54.110;12.138;2023-05-29T00:12:07;101762.19;;;15.81;100.00
16481;BME280;44634;54.110;12.138;2023-05-29T00:14:35;101742.63;;;15.62;100.00
16481;BME280;44634;54.110;12.138;2023-05-29T00:17:03;101731.19;;;15.80;100.00
16481;BME280;44634;54.110;12.138;2023-05-29T00:19:31;101753.03;;;15.83;100.00
16481;BME280;44634;54.110;12.138;2023-05-29T00:22:00;101747.50;;;15.57;100.00
16481;BME280;44634;54.110;12.138;2023-05-29T00:24:28;101765.44;;;16.02;100.00
16481;BME280;44634;54.110;12.138;2023-05-29T00:26:55;101766.41;;;15.73;100.00
16481;BME280;44634;54.110;12.138;2023-05-29T00:29:23;101796.84;;;15.81;100.00
16481;BME280;44634;54.110;12.138;2023-05-29T00:31:51;101821.00;;;15.79;100.00
16481;BME280;44634;54.110;12.138;2023-05-29T00:34:21;101803.94;;;16.27;100.00
16481;BME280;44634;54.110;12.138;2023-05-29T00:36:49;101869.06;;;16.06;100.00
16481;BME280;44634;54.110;12.138;2023-05-29T00:39:18;101871.31;;;16.39;100.00
16481;BME280;44634;54.110;12.138;2023-05-29T00:41:46;101889.53;;;16.16;100.00
16481;BME280;44634;54.110;12.138;2023-05-29T00:44:17;101874.28;;;15.89;100.00
16481;BME280;44634;54.110;12.138;2023-05-29T00:46:45;101879.16;;;16.13;100.00
16481;BME280;44634;54.110;12.138;2023-05-29T00:49:13;101889.88;;;15.93;100.00
16481;BME280;44634;54.110;12.138;2023-05-29T00:51:42;101905.50;;;16.25;100.00
16481;BME280;44634;54.110;12.138;2023-05-29T00:54:13;101922.00;;;16.11;100.00
16481;BME280;44634;54.110;12.138;2023-05-29T00:56:43;101944.56;;;16.17;100.00
16481;BME280;44634;54.110;12.138;2023-05-29T00:59:11;101939.44;;;15.96;100.00
16481;BME280;44634;54.110;12.138;2023-05-29T01:01:39;101940.38;;;16.04;100.00
16481;BME280;44634;54.110;12.138;2023-05-29T01:04:09;101917.28;;;15.37;100.00
16481;BME280;44634;54.110;12.138;2023-05-29T01:06:39;101914.19;;;15.42;100.00
16481;BME280;44634;54.110;12.138;2023-05-29T01:09:07;101896.66;;;15.78;100.00
16481;BME280;44634;54.110;12.138;2023-05-29T01:11:41;101932.28;;;15.58;100.00
16481;BME280;44634;54.110;12.138;2023-05-29T01:14:19;101961.19;;;16.01;100.00
16481;BME280;44634;54.110;12.138;2023-05-29T01:16:55;101984.59;;;16.26;100.00
16481;BME280;44634;54.110;12.138;2023-05-29T01:19:58;101988.69;;;16.01;100.00
16481;BME280;44634;54.110;12.138;2023-05-29T01:22:40;101995.25;;;16.36;100.00
16481;BME280;44634;54.110;12.138;2023-05-29T01:25:19;101983.91;;;16.05;100.00
16481;BME280;44634;54.110;12.138;2023-05-29T01:27:50;102006.78;;;16.17;100.00
16481;BME280;44634;54.110;12.138;2023-05-29T01:30:20;102019.03;;;16.10;100.00
16481;BME280;44634;54.110;12.138;2023-05-29T01:32:48;102015.34;;;16.30;100.00
16481;BME280;44634;54.110;12.138;2023-05-29T01:35:16;102032.13;;;16.60;100.00
16481;BME280;44634;54.110;12.138;2023-05-29T01:37:44;102026.75;;;16.03;100.00
16481;BME280;44634;54.110;12.138;2023-05-29T01:40:12;102017.44;;;16.36;100.00
16481;BME280;44634;54.110;12.138;2023-05-29T01:42:40;102023.78;;;16.26;100.00
16481;BME280;44634;54.110;12.138;2023-05-29T01:45:10;102027.44;;;16.15;100.00
16481;BME280;44634;54.110;12.138;2023-05-29T01:47:39;102040.44;;;16.47;100.00
16481;BME280;44634;54.110;12.138;2023-05-29T01:50:08;102038.81;;;15.88;100.00
16481;BME280;44634;54.110;12.138;2023-05-29T01:52:38;102045.72;;;16.10;100.00
16481;BME280;44634;54.110;12.138;2023-05-29T01:55:07;102041.75;;;16.04;100.00
16481;BME280;44634;54.110;12.138;2023-05-29T01:57:36;102053.13;;;16.16;100.00
16481;BME280;44634;54.110;12.138;2023-05-29T02:00:06;102059.03;;;16.20;100.00
16481;BME280;44634;54.110;12.138;2023-05-29T02:02:38;102041.75;;;16.04;100.00
16481;BME280;44634;54.110;12.138;2023-05-29T02:05:08;102055.53;;;15.81;100.00
16481;BME280;44634;54.110;12.138;2023-05-29T02:07:37;102042.31;;;15.60;100.00
16481;BME280;44634;54.110;12.138;2023-05-29T02:10:05;102061.56;;;15.73;100.00
16481;BME280;44634;54.110;12.138;2023-05-29T02:12:33;102062.41;;;15.83;100.00
16481;BME280;44634;54.110;12.138;2023-05-29T02:15:01;102063.50;;;15.71;100.00
16481;BME280;44634;54.110;12.138;2023-05-29T02:17:29;102059.25;;;15.59;100.00
16481;BME280;44634;54.110;12.138;2023-05-29T02:19:58;102063.09;;;15.75;100.00
16481;BME280;44634;54.110;12.138;2023-05-29T02:22:26;102066.50;;;15.47;100.00
16481;BME280;44634;54.110;12.138;2023-05-29T02:24:55;102053.31;;;15.45;100.00
16481;BME280;44634;54.110;12.138;2023-05-29T02:27:22;102039.63;;;15.50;100.00
16481;BME280;44634;54.110;12.138;2023-05-29T02:29:50;102054.63;;;15.51;100.00
16481;BME280;44634;54.110;12.138;2023-05-29T02:32:18;102049.69;;;15.37;100.00
16481;BME280;44634;54.110;12.138;2023-05-29T02:34:46;102050.75;;;15.65;100.00
16481;BME280;44634;54.110;12.138;2023-05-29T02:37:15;102043.19;;;15.30;100.00
16481;BME280;44634;54.110;12.138;2023-05-29T02:39:43;102029.03;;;14.89;100.00
16481;BME280;44634;54.110;12.138;2023-05-29T02:42:11;102008.47;;;14.91;100.00
16481;BME280;44634;54.110;12.138;2023-05-29T02:44:38;102013.50;;;14.94;100.00
16481;BME280;44634;54.110;12.138;2023-05-29T02:47:06;102029.13;;;15.18;100.00
16481;BME280;44634;54.110;12.138;2023-05-29T02:49:34;102028.63;;;15.34;100.00
16481;BME280;44634;54.110;12.138;2023-05-29T02:52:02;102042.91;;;15.33;100.00
16481;BME280;44634;54.110;12.138;2023-05-29T02:54:31;102051.28;;;15.09;100.00
16481;BME280;44634;54.110;12.138;2023-05-29T02:56:59;102052.91;;;15.40;100.00
16481;BME280;44634;54.110;12.138;2023-05-29T02:59:28;102072.03;;;15.55;100.00
16481;BME280;44634;54.110;12.138;2023-05-29T03:01:58;102082.88;;;15.23;100.00
16481;BME280;44634;54.110;12.138;2023-05-29T03:04:27;102073.22;;;15.32;100.00
16481;BME280;44634;54.110;12.138;2023-05-29T03:06:54;102058.78;;;14.94;100.00
16481;BME280;44634;54.110;12.138;2023-05-29T03:09:22;102059.28;;;15.18;100.00
16481;BME280;44634;54.110;12.138;2023-05-29T03:11:51;102063.88;;;15.07;100.00
16481;BME280;44634;54.110;12.138;2023-05-29T03:14:19;102059.31;;;14.88;100.00
16481;BME280;44634;54.110;12.138;2023-05-29T03:16:48;102054.72;;;14.90;100.00
16481;BME280;44634;54.110;12.138;2023-05-29T03:19:17;102055.94;;;14.86;100.00
16481;BME280;44634;54.110;12.138;2023-05-29T03:21:44;102054.91;;;15.08;100.00
16481;BME280;44634;54.110;12.138;2023-05-29T03:24:12;102057.19;;;14.82;100.00
16481;BME280;44634;54.110;12.138;2023-05-29T03:26:40;102049.53;;;14.98;100.00
16481;BME280;44634;54.110;12.138;2023-05-29T03:29:10;102047.06;;;15.06;100.00
16481;BME280;44634;54.110;12.138;2023-05-29T03:31:37;102063.91;;;15.16;100.00
16481;BME280;44634;54.110;12.138;2023-05-29T03:34:05;102049.19;;;15.12;100.00
16481;BME280;44634;54.110;12.138;2023-05-29T03:36:33;102060.72;;;15.23;100.00
16481;BME280;44634;54.110;12.138;2023-05-29T03:39:03;102054.59;;;15.01;100.00
16481;BME280;44634;54.110;12.138;2023-05-29T03:41:30;102059.00;;;14.81;100.00
16481;BME280;44634;54.110;12.138;2023-05-29T03:43:58;102056.41;;;15.01;100.00
16481;BME280;44634;54.110;12.138;2023-05-29T03:46:27;102048.00;;;15.36;100.00
16481;BME280;44634;54.110;12.138;2023-05-29T03:48:55;102059.41;;;15.07;100.00
16481;BME280;44634;54.110;12.138;2023-05-29T03:51:23;102067.13;;;14.80;100.00
16481;BME280;44634;54.110;12.138;2023-05-29T03:53:51;102066.78;;;14.94;100.00
16481;BME280;44634;54.110;12.138;2023-05-29T03:56:18;102058.88;;;14.83;100.00
16481;BME280;44634;54.110;12.138;2023-05-29T03:58:46;102050.44;;;14.78;100.00
16481;BME280;44634;54.110;12.138;2023-05-29T04:01:14;102062.44;;;14.93;100.00
16481;BME280;44634;54.110;12.138;2023-05-29T04:03:43;102053.75;;;14.70;100.00
16481;BME280;44634;54.110;12.138;2023-05-29T04:06:11;102080.75;;;14.86;100.00
16481;BME280;44634;54.110;12.138;2023-05-29T04:08:39;102060.25;;;14.77;100.00
16481;BME280;44634;54.110;12.138;2023-05-29T04:11:07;102062.44;;;15.03;100.00
16481;BME280;44634;54.110;12.138;2023-05-29T04:13:35;102083.63;;;15.04;100.00
16481;BME280;44634;54.110;12.138;2023-05-29T04:16:03;102076.31;;;14.97;100.00
16481;BME280;44634;54.110;12.138;2023-05-29T04:18:30;102086.06;;;15.17;100.00
16481;BME280;44634;54.110;12.138;2023-05-29T04:21:00;102080.66;;;14.98;100.00
16481;BME280;44634;54.110;12.138;2023-05-29T04:23:28;102089.06;;;14.93;100.00
16481;BME280;44634;54.110;12.138;2023-05-29T04:25:55;102089.66;;;15.37;100.00
16481;BME280;44634;54.110;12.138;2023-05-29T04:28:23;102073.50;;;14.98;100.00
16481;BME280;44634;54.110;12.138;2023-05-29T04:30:52;102105.09;;;15.83;100.00
16481;BME280;44634;54.110;12.138;2023-05-29T04:33:22;102132.31;;;15.77;100.00
16481;BME280;44634;54.110;12.138;2023-05-29T04:35:50;102122.63;;;15.45;100.00
16481;BME280;44634;54.110;12.138;2023-05-29T04:38:20;102123.06;;;15.81;100.00
16481;BME280;44634;54.110;12.138;2023-05-29T04:40:52;102139.41;;;14.96;100.00
16481;BME280;44634;54.110;12.138;2023-05-29T04:43:24;102136.41;;;15.51;100.00
16481;BME280;44634;54.110;12.138;2023-05-29T04:45:52;102133.91;;;15.59;100.00
16481;BME280;44634;54.110;12.138;2023-05-29T04:48:20;102122.47;;;15.37;100.00
16481;BME280;44634;54.110;12.138;2023-05-29T04:50:48;102144.69;;;15.57;100.00
16481;BME280;44634;54.110;12.138;2023-05-29T04:53:16;102152.94;;;15.44;100.00
16481;BME280;44634;54.110;12.138;2023-05-29T04:55:45;102147.09;;;16.10;100.00
16481;BME280;44634;54.110;12.138;2023-05-29T04:58:13;102154.41;;;16.27;100.00
16481;BME280;44634;54.110;12.138;2023-05-29T05:00:41;102132.81;;;15.00;100.00
16481;BME280;44634;54.110;12.138;2023-05-29T05:03:10;102114.16;;;15.00;100.00
16481;BME280;44634;54.110;12.138;2023-05-29T05:05:38;102115.63;;;15.85;100.00
16481;BME280;44634;54.110;12.138;2023-05-29T05:08:06;102132.66;;;15.23;100.00
16481;BME280;44634;54.110;12.138;2023-05-29T05:10:33;102127.72;;;15.98;100.00
16481;BME280;44634;54.110;12.138;2023-05-29T05:13:02;102136.72;;;16.07;100.00
16481;BME280;44634;54.110;12.138;2023-05-29T05:15:33;102146.66;;;15.55;100.00
16481;BME280;44634;54.110;12.138;2023-05-29T05:18:02;102121.53;;;15.17;100.00
16481;BME280;44634;54.110;12.138;2023-05-29T05:20:29;102107.59;;;15.35;100.00
16481;BME280;44634;54.110;12.138;2023-05-29T05:22:57;102128.66;;;15.47;100.00
16481;BME280;44634;54.110;12.138;2023-05-29T05:25:26;102137.78;;;15.35;100.00
16481;BME280;44634;54.110;12.138;2023-05-29T05:27:54;102102.88;;;14.87;100.00
16481;BME280;44634;54.110;12.138;2023-05-29T05:30:23;102093.22;;;14.86;100.00
16481;BME280;44634;54.110;12.138;2023-05-29T05:32:51;102114.31;;;15.69;100.00
16481;BME280;44634;54.110;12.138;2023-05-29T05:35:19;102109.84;;;15.70;100.00
16481;BME280;44634;54.110;12.138;2023-05-29T05:37:47;102124.22;;;16.08;100.00
16481;BME280;44634;54.110;12.138;2023-05-29T05:40:14;102140.34;;;16.16;100.00
16481;BME280;44634;54.110;12.138;2023-05-29T05:42:42;102130.13;;;16.21;100.00
16481;BME280;44634;54.110;12.138;2023-05-29T05:45:10;102131.50;;;16.05;100.00
16481;BME280;44634;54.110;12.138;2023-05-29T05:47:39;102112.13;;;16.03;100.00
16481;BME280;44634;54.110;12.138;2023-05-29T05:50:08;102112.13;;;15.94;100.00
16481;BME280;44634;54.110;12.138;2023-05-29T05:52:36;102094.94;;;15.27;100.00
16481;BME280;44634;54.110;12.138;2023-05-29T05:55:04;102074.53;;;15.57;100.00
16481;BME280;44634;54.110;12.138;2023-05-29T05:57:32;102073.63;;;15.67;100.00
16481;BME280;44634;54.110;12.138;2023-05-29T06:00:02;102089.81;;;15.95;100.00
16481;BME280;44634;54.110;12.138;2023-05-29T06:02:31;102066.78;;;15.34;100.00
16481;BME280;44634;54.110;12.138;2023-05-29T06:05:00;102049.91;;;15.24;100.00
16481;BME280;44634;54.110;12.138;2023-05-29T06:07:28;102057.44;;;15.09;100.00
16481;BME280;44634;54.110;12.138;2023-05-29T06:09:55;102078.81;;;15.69;100.00
16481;BME280;44634;54.110;12.138;2023-05-29T06:12:23;102080.13;;;15.44;100.00
16481;BME280;44634;54.110;12.138;2023-05-29T06:14:52;102100.34;;;16.06;100.00
16481;BME280;44634;54.110;12.138;2023-05-29T06:17:19;102127.81;;;15.77;100.00
16481;BME280;44634;54.110;12.138;2023-05-29T06:19:49;102122.75;;;15.34;100.00
16481;BME280;44634;54.110;12.138;2023-05-29T06:22:18;102143.66;;;15.39;100.00
16481;BME280;44634;54.110;12.138;2023-05-29T06:24:46;102159.88;;;15.97;100.00
16481;BME280;44634;54.110;12.138;2023-05-29T06:27:14;102174.22;;;16.34;100.00
16481;BME280;44634;54.110;12.138;2023-05-29T06:29:42;102192.41;;;15.91;100.00
16481;BME280;44634;54.110;12.138;2023-05-29T06:32:09;102191.22;;;15.64;100.00
16481;BME280;44634;54.110;12.138;2023-05-29T06:34:37;102213.53;;;16.13;100.00
16481;BME280;44634;54.110;12.138;2023-05-29T06:37:05;102203.63;;;15.85;100.00
16481;BME280;44634;54.110;12.138;2023-05-29T06:39:34;102231.94;;;16.06;100.00
16481;BME280;44634;54.110;12.138;2023-05-29T06:42:02;102235.84;;;15.62;100.00
16481;BME280;44634;54.110;12.138;2023-05-29T06:44:30;102230.88;;;15.88;100.00
16481;BME280;44634;54.110;12.138;2023-05-29T06:46:58;102244.06;;;15.80;100.00
16481;BME280;44634;54.110;12.138;2023-05-29T06:49:26;102236.25;;;15.98;100.00
16481;BME280;44634;54.110;12.138;2023-05-29T06:51:53;102226.28;;;16.00;100.00
16481;BME280;44634;54.110;12.138;2023-05-29T06:54:21;102229.13;;;16.18;100.00
16481;BME280;44634;54.110;12.138;2023-05-29T06:56:50;102233.97;;;16.53;100.00
16481;BME280;44634;54.110;12.138;2023-05-29T06:59:36;102229.72;;;16.41;100.00
16481;BME280;44634;54.110;12.138;2023-05-29T07:02:04;102232.25;;;16.23;100.00
16481;BME280;44634;54.110;12.138;2023-05-29T07:04:32;102229.16;;;16.27;100.00
16481;BME280;44634;54.110;12.138;2023-05-29T07:07:00;102217.59;;;16.08;100.00
16481;BME280;44634;54.110;12.138;2023-05-29T07:09:28;102225.47;;;16.09;100.00
16481;BME280;44634;54.110;12.138;2023-05-29T07:11:57;102236.44;;;16.25;100.00
16481;BME280;44634;54.110;12.138;2023-05-29T07:14:25;102229.84;;;16.49;100.00
16481;BME280;44634;54.110;12.138;2023-05-29T07:16:52;102233.38;;;16.59;100.00
16481;BME280;44634;54.110;12.138;2023-05-29T07:19:20;102228.22;;;16.67;100.00
16481;BME280;44634;54.110;12.138;2023-05-29T07:21:48;102235.34;;;17.15;100.00
16481;BME280;44634;54.110;12.138;2023-05-29T07:24:16;102248.00;;;16.35;100.00
16481;BME280;44634;54.110;12.138;2023-05-29T07:26:44;102250.81;;;16.63;100.00
16481;BME280;44634;54.110;12.138;2023-05-29T07:29:13;102255.28;;;16.33;100.00
16481;BME280;44634;54.110;12.138;2023-05-29T07:31:43;102263.09;;;16.94;100.00
16481;BME280;44634;54.110;12.138;2023-05-29T07:34:11;102275.25;;;16.49;100.00
16481;BME280;44634;54.110;12.138;2023-05-29T07:36:56;102269.69;;;17.66;100.00
16481;BME280;44634;54.110;12.138;2023-05-29T07:39:24;102265.91;;;16.93;100.00
16481;BME280;44634;54.110;12.138;2023-05-29T07:41:52;102262.50;;;17.10;100.00
16481;BME280;44634;54.110;12.138;2023-05-29T07:44:21;102278.25;;;16.65;100.00
16481;BME280;44634;54.110;12.138;2023-05-29T07:46:49;102281.06;;;17.02;100.00
16481;BME280;44634;54.110;12.138;2023-05-29T07:49:17;102280.59;;;17.36;100.00
16481;BME280;44634;54.110;12.138;2023-05-29T07:51:44;102283.63;;;16.84;100.00
16481;BME280;44634;54.110;12.138;2023-05-29T07:54:12;102289.69;;;16.27;100.00
16481;BME280;44634;54.110;12.138;2023-05-29T07:56:43;102278.25;;;17.04;100.00
16481;BME280;44634;54.110;12.138;2023-05-29T07:59:12;102294.84;;;16.69;100.00
16481;BME280;44634;54.110;12.138;2023-05-29T08:01:41;102291.31;;;17.07;100.00
16481;BME280;44634;54.110;12.138;2023-05-29T08:04:11;102301.59;;;17.21;100.00
16481;BME280;44634;54.110;12.138;2023-05-29T08:06:39;102306.81;;;17.13;100.00
16481;BME280;44634;54.110;12.138;2023-05-29T08:09:09;102290.78;;;17.22;100.00
16481;BME280;44634;54.110;12.138;2023-05-29T08:11:36;102315.38;;;16.68;100.00
16481;BME280;44634;54.110;12.138;2023-05-29T08:14:04;102302.31;;;16.84;100.00
16481;BME280;44634;54.110;12.138;2023-05-29T08:16:32;102293.22;;;16.47;100.00
16481;BME280;44634;54.110;12.138;2023-05-29T08:19:01;102297.53;;;16.98;100.00
16481;BME280;44634;54.110;12.138;2023-05-29T08:21:30;102303.56;;;16.90;100.00
16481;BME280;44634;54.110;12.138;2023-05-29T08:23:59;102308.06;;;17.38;100.00
16481;BME280;44634;54.110;12.138;2023-05-29T08:26:27;102313.84;;;17.14;100.00
16481;BME280;44634;54.110;12.138;2023-05-29T08:28:54;102298.06;;;17.20;100.00
16481;BME280;44634;54.110;12.138;2023-05-29T08:31:22;102299.78;;;16.73;100.00
16481;BME280;44634;54.110;12.138;2023-05-29T08:33:52;102291.22;;;17.74;100.00
16481;BME280;44634;54.110;12.138;2023-05-29T08:36:22;102312.56;;;17.28;100.00
16481;BME280;44634;54.110;12.138;2023-05-29T08:38:50;102305.78;;;16.65;100.00
16481;BME280;44634;54.110;12.138;2023-05-29T08:41:21;102305.59;;;16.38;100.00
16481;BME280;44634;54.110;12.138;2023-05-29T08:43:53;102301.31;;;17.05;100.00
16481;BME280;44634;54.110;12.138;2023-05-29T08:46:20;102309.91;;;16.89;100.00
16481;BME280;44634;54.110;12.138;2023-05-29T08:48:49;102306.81;;;17.03;100.00
16481;BME280;44634;54.110;12.138;2023-05-29T08:51:19;102316.13;;;17.84;100.00
16481;BME280;44634;54.110;12.138;2023-05-29T08:53:50;102314.66;;;17.34;100.00
16481;BME280;44634;54.110;12.138;2023-05-29T08:56:19;102302.88;;;16.98;100.00
16481;BME280;44634;54.110;12.138;2023-05-29T08:59:01;102316.88;;;17.58;100.00
16481;BME280;44634;54.110;12.138;2023-05-29T09:01:33;102316.88;;;17.48;100.00
16481;BME280;44634;54.110;12.138;2023-05-29T09:04:03;102326.59;;;17.49;100.00
16481;BME280;44634;54.110;12.138;2023-05-29T09:06:31;102328.97;;;17.81;100.00
16481;BME280;44634;54.110;12.138;2023-05-29T09:09:00;102325.69;;;18.24;100.00
16481;BME280;44634;54.110;12.138;2023-05-29T09:11:28;102329.53;;;18.12;100.00
16481;BME280;44634;54.110;12.138;2023-05-29T09:13:56;102335.88;;;17.74;100.00
16481;BME280;44634;54.110;12.138;2023-05-29T09:16:24;102325.75;;;18.05;100.00
16481;BME280;44634;54.110;12.138;2023-05-29T09:18:52;102327.84;;;18.11;100.00
16481;BME280;44634;54.110;12.138;2023-05-29T09:21:26;102321.16;;;18.52;100.00
16481;BME280;44634;54.110;12.138;2023-05-29T09:24:04;102332.81;;;18.33;100.00
16481;BME280;44634;54.110;12.138;2023-05-29T09:26:32;102330.31;;;17.95;100.00
16481;BME280;44634;54.110;12.138;2023-05-29T09:29:01;102331.56;;;18.28;100.00
16481;BME280;44634;54.110;12.138;2023-05-29T09:31:30;102333.25;;;18.56;100.00
16481;BME280;44634;54.110;12.138;2023-05-29T09:34:01;102337.03;;;18.08;100.00
16481;BME280;44634;54.110;12.138;2023-05-29T09:36:29;102341.47;;;18.18;100.00
16481;BME280;44634;54.110;12.138;2023-05-29T09:39:01;102333.59;;;18.16;100.00
16481;BME280;44634;54.110;12.138;2023-05-29T09:41:32;102334.94;;;18.30;100.00
16481;BME280;44634;54.110;12.138;2023-05-29T09:44:00;102331.75;;;19.07;100.00
16481;BME280;44634;54.110;12.138;2023-05-29T09:46:33;102339.81;;;18.07;100.00
16481;BME280;44634;54.110;12.138;2023-05-29T09:49:02;102338.13;;;18.06;100.00
16481;BME280;44634;54.110;12.138;2023-05-29T09:51:30;102333.44;;;18.45;100.00
16481;BME280;44634;54.110;12.138;2023-05-29T09:53:58;102340.78;;;17.59;100.00
16481;BME280;44634;54.110;12.138;2023-05-29T09:56:29;102331.38;;;18.11;100.00
16481;BME280;44634;54.110;12.138;2023-05-29T09:59:00;102334.34;;;18.08;100.00
16481;BME280;44634;54.110;12.138;2023-05-29T10:01:28;102335.81;;;18.93;100.00
16481;BME280;44634;54.110;12.138;2023-05-29T10:03:56;102344.78;;;18.84;100.00
16481;BME280;44634;54.110;12.138;2023-05-29T10:06:24;102336.28;;;18.71;100.00
16481;BME280;44634;54.110;12.138;2023-05-29T10:08:52;102325.72;;;18.87;100.00
16481;BME280;44634;54.110;12.138;2023-05-29T10:11:23;102339.16;;;19.31;99.44
16481;BME280;44634;54.110;12.138;2023-05-29T10:13:54;102341.44;;;18.82;100.00
16481;BME280;44634;54.110;12.138;2023-05-29T10:16:27;102329.72;;;18.83;99.17
16481;BME280;44634;54.110;12.138;2023-05-29T10:18:55;102336.56;;;19.57;95.36
16481;BME280;44634;54.110;12.138;2023-05-29T10:21:25;102323.59;;;19.78;99.09
16481;BME280;44634;54.110;12.138;2023-05-29T10:23:54;102333.25;;;20.31;90.77
16481;BME280;44634;54.110;12.138;2023-05-29T10:26:25;102336.25;;;19.94;91.23
16481;BME280;44634;54.110;12.138;2023-05-29T10:28:58;102334.75;;;20.26;82.19
16481;BME280;44634;54.110;12.138;2023-05-29T10:31:39;102322.34;;;20.83;80.44
16481;BME280;44634;54.110;12.138;2023-05-29T10:34:20;102330.91;;;20.87;78.52
16481;BME280;44634;54.110;12.138;2023-05-29T10:36:56;102319.97;;;21.53;71.92
16481;BME280;44634;54.110;12.138;2023-05-29T10:39:28;102329.88;;;20.96;69.88
16481;BME280;44634;54.110;12.138;2023-05-29T10:41:56;102320.41;;;21.89;63.15
16481;BME280;44634;54.110;12.138;2023-05-29T10:44:40;102318.69;;;21.96;71.38
16481;BME280;44634;54.110;12.138;2023-05-29T10:47:09;102320.50;;;21.57;72.12
16481;BME280;44634;54.110;12.138;2023-05-29T10:49:39;102313.44;;;21.39;76.79
16481;BME280;44634;54.110;12.138;2023-05-29T10:52:10;102308.56;;;22.15;80.35
16481;BME280;44634;54.110;12.138;2023-05-29T10:54:50;102310.22;;;21.52;78.19
16481;BME280;44634;54.110;12.138;2023-05-29T10:57:21;102306.53;;;23.02;70.21
16481;BME280;44634;54.110;12.138;2023-05-29T10:59:58;102298.56;;;23.90;63.38
16481;BME280;44634;54.110;12.138;2023-05-29T11:02:27;102306.81;;;22.30;61.16
16481;BME280;44634;54.110;12.138;2023-05-29T11:05:05;102299.63;;;23.52;63.99
16481;BME280;44634;54.110;12.138;2023-05-29T11:07:34;102310.22;;;21.60;77.74
16481;BME280;44634;54.110;12.138;2023-05-29T11:10:12;102299.78;;;22.75;71.36
16481;BME280;44634;54.110;12.138;2023-05-29T11:12:57;102294.22;;;22.76;66.65
16481;BME280;44634;54.110;12.138;2023-05-29T11:15:25;102294.38;;;22.98;61.90
16481;BME280;44634;54.110;12.138;2023-05-29T11:18:05;102282.81;;;23.79;58.52
16481;BME280;44634;54.110;12.138;2023-05-29T11:20:37;102298.16;;;21.32;76.30
16481;BME280;44634;54.110;12.138;2023-05-29T11:23:06;102307.88;;;21.08;72.50
16481;BME280;44634;54.110;12.138;2023-05-29T11:25:36;102284.72;;;22.89;67.15
16481;BME280;44634;54.110;12.138;2023-05-29T11:28:05;102285.91;;;20.38;81.70
16481;BME280;44634;54.110;12.138;2023-05-29T11:30:46;102282.72;;;22.82;68.41
16481;BME280;44634;54.110;12.138;2023-05-29T11:33:24;102275.69;;;23.34;67.17
16481;BME280;44634;54.110;12.138;2023-05-29T11:35:57;102283.94;;;23.85;54.75
16481;BME280;44634;54.110;12.138;2023-05-29T11:38:27;102292.25;;;23.31;56.02
16481;BME280;44634;54.110;12.138;2023-05-29T11:40:55;102287.66;;;22.17;71.65
16481;BME280;44634;54.110;12.138;2023-05-29T11:43:24;102287.38;;;23.79;60.39
16481;BME280;44634;54.110;12.138;2023-05-29T11:45:53;102283.66;;;23.27;69.33
16481;BME280;44634;54.110;12.138;2023-05-29T11:48:21;102284.13;;;23.16;65.60
16481;BME280;44634;54.110;12.138;2023-05-29T11:50:52;102293.03;;;22.48;71.37
16481;BME280;44634;54.110;12.138;2023-05-29T11:53:20;102290.09;;;22.89;65.75
16481;BME280;44634;54.110;12.138;2023-05-29T11:55:48;102280.06;;;21.65;73.46
16481;BME280;44634;54.110;12.138;2023-05-29T11:58:16;102283.41;;;22.99;66.68
16481;BME280;44634;54.110;12.138;2023-05-29T12:00:44;102275.34;;;23.52;67.59
16481;BME280;44634;54.110;12.138;2023-05-29T12:03:14;102278.81;;;23.60;63.74
16481;BME280;44634;54.110;12.138;2023-05-29T12:05:46;102286.56;;;22.88;72.96
16481;BME280;44634;54.110;12.138;2023-05-29T12:08:16;102278.16;;;23.88;62.55
16481;BME280;44634;54.110;12.138;2023-05-29T12:10:48;102281.50;;;23.08;68.77
16481;BME280;44634;54.110;12.138;2023-05-29T12:13:18;102276.59;;;23.64;64.52
16481;BME280;44634;54.110;12.138;2023-05-29T12:15:47;102274.00;;;24.21;58.66
16481;BME280;44634;54.110;12.138;2023-05-29T12:18:16;102277.22;;;23.81;62.22
16481;BME280;44634;54.110;12.138;2023-05-29T12:20:44;102286.81;;;23.83;58.12
16481;BME280;44634;54.110;12.138;2023-05-29T12:23:12;102285.09;;;23.53;64.92
16481;BME280;44634;54.110;12.138;2023-05-29T12:25:44;102288.59;;;23.91;62.69
16481;BME280;44634;54.110;12.138;2023-05-29T12:28:15;102273.47;;;24.11;65.29
16481;BME280;44634;54.110;12.138;2023-05-29T12:30:47;102275.19;;;23.83;64.99
16481;BME280;44634;54.110;12.138;2023-05-29T12:33:27;102287.13;;;23.59;63.91
16481;BME280;44634;54.110;12.138;2023-05-29T12:36:01;102278.34;;;23.86;63.54
16481;BME280;44634;54.110;12.138;2023-05-29T12:38:29;102276.75;;;24.43;59.93
16481;BME280;44634;54.110;12.138;2023-05-29T12:40:58;102285.47;;;24.38;48.68
16481;BME280;44634;54.110;12.138;2023-05-29T12:43:26;102263.06;;;25.36;47.15
16481;BME280;44634;54.110;12.138;2023-05-29T12:45:54;102264.22;;;24.56;54.95